sensor_id;sensor_type;location;lat;lon;timestamp;pressure;altitude;pressure_sealevel;temperature;humidity
20620;BME280;10469;42.720;23.252;2023-10-13T00:00:26;95389.78;;;11.87;100.00
20620;BME280;10469;42.720;23.252;2023-10-13T00:02:57;95384.94;;;11.66;100.00
20620;BME280;10469;42.720;23.252;2023-10-13T00:05:30;95385.31;;;11.81;100.00
20620;BME280;10469;42.720;23.252;2023-10-13T00:08:00;95390.31;;;11.66;100.00
20620;BME280;10469;42.720;23.252;2023-10-13T00:10:27;95387.06;;;11.75;100.00
20620;BME280;10469;42.720;23.252;2023-10-13T00:12:54;95391.84;;;11.73;100.00
20620;BME280;10469;42.720;23.252;2023-10-13T00:15:31;95393.16;;;11.83;100.00
20620;BME280;10469;42.720;23.252;2023-10-13T00:18:06;95382.50;;;11.76;100.00
20620;BME280;10469;42.720;23.252;2023-10-13T00:20:43;95373.63;;;11.75;100.00
20620;BME280;10469;42.720;23.252;2023-10-13T00:23:16;95373.97;;;11.67;100.00
20620;BME280;10469;42.720;23.252;2023-10-13T00:25:50;95366.69;;;11.44;100.00
20620;BME280;10469;42.720;23.252;2023-10-13T00:28:18;95386.28;;;11.45;100.00
20620;BME280;10469;42.720;23.252;2023-10-13T00:31:00;95380.13;;;11.14;100.00
20620;BME280;10469;42.720;23.252;2023-10-13T00:33:30;95374.88;;;11.19;100.00
20620;BME280;10469;42.720;23.252;2023-10-13T00:35:57;95385.81;;;11.18;100.00
20620;BME280;10469;42.720;23.252;2023-10-13T00:38:24;95382.47;;;11.22;100.00
20620;BME280;10469;42.720;23.252;2023-10-13T00:40:50;95378.47;;;11.13;100.00
20620;BME280;10469;42.720;23.252;2023-10-13T00:43:21;95384.94;;;10.94;100.00
20620;BME280;10469;42.720;23.252;2023-10-13T00:45:50;95388.50;;;11.06;100.00
20620;BME280;10469;42.720;23.252;2023-10-13T00:48:30;95393.47;;;11.02;100.00
20620;BME280;10469;42.720;23.252;2023-10-13T00:53:48;95381.00;;;10.78;100.00
20620;BME280;10469;42.720;23.252;2023-10-13T00:56:14;95392.03;;;10.88;100.00
20620;BME280;10469;42.720;23.252;2023-10-13T00:58:53;95368.22;;;10.92;100.00
20620;BME280;10469;42.720;23.252;2023-10-13T01:01:21;95391.63;;;11.03;100.00
20620;BME280;10469;42.720;23.252;2023-10-13T01:03:48;95373.56;;;10.80;100.00
20620;BME280;10469;42.720;23.252;2023-10-13T01:06:17;95396.34;;;10.89;100.00
20620;BME280;10469;42.720;23.252;2023-10-13T01:08:47;95382.91;;;10.89;100.00
20620;BME280;10469;42.720;23.252;2023-10-13T01:11:18;95393.84;;;11.06;100.00
20620;BME280;10469;42.720;23.252;2023-10-13T01:13:45;95385.63;;;11.01;100.00
20620;BME280;10469;42.720;23.252;2023-10-13T01:16:17;95365.91;;;10.95;100.00
20620;BME280;10469;42.720;23.252;2023-10-13T01:18:44;95376.38;;;11.15;100.00
20620;BME280;10469;42.720;23.252;2023-10-13T01:21:17;95380.88;;;11.03;100.00
20620;BME280;10469;42.720;23.252;2023-10-13T01:23:46;95395.44;;;10.95;100.00
20620;BME280;10469;42.720;23.252;2023-10-13T01:26:14;95399.09;;;10.83;100.00
20620;BME280;10469;42.720;23.252;2023-10-13T01:28:44;95391.72;;;10.78;100.00
20620;BME280;10469;42.720;23.252;2023-10-13T01:31:12;95393.56;;;10.96;100.00
20620;BME280;10469;42.720;23.252;2023-10-13T01:42:57;95388.81;;;10.61;100.00
20620;BME280;10469;42.720;23.252;2023-10-13T01:45:23;95403.78;;;10.69;100.00
20620;BME280;10469;42.720;23.252;2023-10-13T01:47:56;95388.44;;;10.58;100.00
20620;BME280;10469;42.720;23.252;2023-10-13T01:50:22;95408.03;;;10.76;100.00
20620;BME280;10469;42.720;23.252;2023-10-13T01:52:55;95398.44;;;10.69;100.00
20620;BME280;10469;42.720;23.252;2023-10-13T01:55:43;95402.38;;;10.48;100.00
20620;BME280;10469;42.720;23.252;2023-10-13T01:58:10;95386.94;;;10.25;100.00
20620;BME280;10469;42.720;23.252;2023-10-13T02:00:45;95398.50;;;10.25;100.00
20620;BME280;10469;42.720;23.252;2023-10-13T02:03:13;95397.59;;;10.32;100.00
20620;BME280;10469;42.720;23.252;2023-10-13T02:05:46;95375.72;;;10.35;100.00
20620;BME280;10469;42.720;23.252;2023-10-13T02:08:19;95383.41;;;10.49;100.00
20620;BME280;10469;42.720;23.252;2023-10-13T02:10:50;95395.22;;;10.60;100.00
20620;BME280;10469;42.720;23.252;2023-10-13T02:13:17;95389.59;;;10.50;100.00
20620;BME280;10469;42.720;23.252;2023-10-13T02:15:47;95346.91;;;10.30;100.00
20620;BME280;10469;42.720;23.252;2023-10-13T02:18:18;95387.56;;;10.45;100.00
20620;BME280;10469;42.720;23.252;2023-10-13T02:20:56;95389.28;;;10.58;100.00
20620;BME280;10469;42.720;23.252;2023-10-13T02:23:23;95392.84;;;10.52;100.00
20620;BME280;10469;42.720;23.252;2023-10-13T02:25:55;95393.38;;;10.61;100.00
20620;BME280;10469;42.720;23.252;2023-10-13T02:28:28;95389.81;;;10.67;100.00
20620;BME280;10469;42.720;23.252;2023-10-13T02:30:56;95363.22;;;10.47;100.00
20620;BME280;10469;42.720;23.252;2023-10-13T02:33:24;95399.09;;;10.64;100.00
20620;BME280;10469;42.720;23.252;2023-10-13T02:35:58;95393.22;;;10.55;100.00
20620;BME280;10469;42.720;23.252;2023-10-13T02:38:34;95391.59;;;10.54;100.00
20620;BME280;10469;42.720;23.252;2023-10-13T02:41:03;95395.97;;;10.49;100.00
20620;BME280;10469;42.720;23.252;2023-10-13T02:43:35;95400.44;;;10.55;100.00
20620;BME280;10469;42.720;23.252;2023-10-13T02:46:03;95407.22;;;10.58;100.00
20620;BME280;10469;42.720;23.252;2023-10-13T02:48:29;95411.69;;;10.64;100.00
20620;BME280;10469;42.720;23.252;2023-10-13T02:51:06;95406.09;;;10.65;100.00
20620;BME280;10469;42.720;23.252;2023-10-13T02:53:50;95404.63;;;10.51;100.00
20620;BME280;10469;42.720;23.252;2023-10-13T02:56:18;95405.44;;;10.33;100.00
20620;BME280;10469;42.720;23.252;2023-10-13T02:58:51;95401.56;;;10.22;100.00
20620;BME280;10469;42.720;23.252;2023-10-13T03:01:22;95390.84;;;10.04;100.00
20620;BME280;10469;42.720;23.252;2023-10-13T03:03:54;95397.25;;;10.21;100.00
20620;BME280;10469;42.720;23.252;2023-10-13T03:06:22;95394.03;;;10.13;100.00
20620;BME280;10469;42.720;23.252;2023-10-13T03:09:02;95419.69;;;10.27;100.00
20620;BME280;10469;42.720;23.252;2023-10-13T03:11:45;95425.00;;;10.09;100.00
20620;BME280;10469;42.720;23.252;2023-10-13T03:14:23;95417.94;;;10.14;100.00
20620;BME280;10469;42.720;23.252;2023-10-13T03:16:58;95410.66;;;10.21;100.00
20620;BME280;10469;42.720;23.252;2023-10-13T03:19:32;95408.31;;;10.32;100.00
20620;BME280;10469;42.720;23.252;2023-10-13T03:22:09;95421.44;;;10.40;100.00
20620;BME280;10469;42.720;23.252;2023-10-13T03:24:40;95409.97;;;10.33;100.00
20620;BME280;10469;42.720;23.252;2023-10-13T03:27:18;95416.06;;;10.40;100.00
20620;BME280;10469;42.720;23.252;2023-10-13T03:29:48;95401.75;;;10.27;100.00
20620;BME280;10469;42.720;23.252;2023-10-13T03:32:19;95413.63;;;10.38;100.00
20620;BME280;10469;42.720;23.252;2023-10-13T03:34:46;95415.91;;;10.35;100.00
20620;BME280;10469;42.720;23.252;2023-10-13T03:37:27;95414.44;;;10.39;100.00
20620;BME280;10469;42.720;23.252;2023-10-13T03:40:10;95416.31;;;10.38;100.00
20620;BME280;10469;42.720;23.252;2023-10-13T03:43:00;95402.53;;;10.35;100.00
20620;BME280;10469;42.720;23.252;2023-10-13T03:45:48;95393.91;;;10.33;100.00
20620;BME280;10469;42.720;23.252;2023-10-13T03:48:36;95387.25;;;10.10;100.00
20620;BME280;10469;42.720;23.252;2023-10-13T03:51:22;95379.53;;;10.02;100.00
20620;BME280;10469;42.720;23.252;2023-10-13T03:54:05;95349.81;;;9.85;100.00
20620;BME280;10469;42.720;23.252;2023-10-13T03:56:35;95341.22;;;9.76;100.00
20620;BME280;10469;42.720;23.252;2023-10-13T03:59:05;95387.88;;;10.12;100.00
20620;BME280;10469;42.720;23.252;2023-10-13T04:01:39;95358.22;;;9.89;100.00
20620;BME280;10469;42.720;23.252;2023-10-13T04:04:18;95386.91;;;10.07;100.00
20620;BME280;10469;42.720;23.252;2023-10-13T04:07:03;95390.53;;;9.94;100.00
20620;BME280;10469;42.720;23.252;2023-10-13T04:09:38;95360.19;;;9.75;100.00
20620;BME280;10469;42.720;23.252;2023-10-13T04:12:12;95386.63;;;9.65;100.00
20620;BME280;10469;42.720;23.252;2023-10-13T04:14:44;95388.66;;;9.69;100.00
20620;BME280;10469;42.720;23.252;2023-10-13T04:17:29;95374.50;;;9.62;100.00
20620;BME280;10469;42.720;23.252;2023-10-13T04:20:00;95396.00;;;9.80;100.00
20620;BME280;10469;42.720;23.252;2023-10-13T04:25:22;95398.72;;;9.74;100.00
20620;BME280;10469;42.720;23.252;2023-10-13T04:28:12;95404.28;;;9.72;100.00
20620;BME280;10469;42.720;23.252;2023-10-13T04:30:46;95406.47;;;9.57;100.00
20620;BME280;10469;42.720;23.252;2023-10-13T04:33:31;95413.03;;;9.61;100.00
20620;BME280;10469;42.720;23.252;2023-10-13T04:36:06;95395.03;;;9.43;100.00
20620;BME280;10469;42.720;23.252;2023-10-13T04:38:52;95409.78;;;9.52;100.00
20620;BME280;10469;42.720;23.252;2023-10-13T04:41:32;95403.78;;;9.25;100.00
20620;BME280;10469;42.720;23.252;2023-10-13T04:44:10;95378.84;;;8.93;100.00
20620;BME280;10469;42.720;23.252;2023-10-13T04:46:54;95409.75;;;9.27;100.00
20620;BME280;10469;42.720;23.252;2023-10-13T04:49:39;95430.00;;;9.48;100.00
20620;BME280;10469;42.720;23.252;2023-10-13T04:52:05;95424.94;;;9.65;100.00
20620;BME280;10469;42.720;23.252;2023-10-13T04:54:36;95415.94;;;9.85;100.00
20620;BME280;10469;42.720;23.252;2023-10-13T04:57:21;95436.53;;;10.09;100.00
20620;BME280;10469;42.720;23.252;2023-10-13T05:00:07;95431.81;;;10.54;100.00
20620;BME280;10469;42.720;23.252;2023-10-13T05:02:39;95433.94;;;11.01;100.00
20620;BME280;10469;42.720;23.252;2023-10-13T05:07:36;95411.97;;;11.41;100.00
20620;BME280;10469;42.720;23.252;2023-10-13T05:10:19;95440.66;;;12.12;100.00
20620;BME280;10469;42.720;23.252;2023-10-13T05:13:03;95448.22;;;12.97;100.00
20620;BME280;10469;42.720;23.252;2023-10-13T05:15:50;95453.50;;;12.80;100.00
20620;BME280;10469;42.720;23.252;2023-10-13T05:18:35;95442.75;;;14.06;100.00
20620;BME280;10469;42.720;23.252;2023-10-13T05:21:19;95439.59;;;15.70;100.00
20620;BME280;10469;42.720;23.252;2023-10-13T05:24:04;95448.44;;;17.46;100.00
20620;BME280;10469;42.720;23.252;2023-10-13T05:26:48;95449.72;;;18.22;100.00
20620;BME280;10469;42.720;23.252;2023-10-13T05:29:33;95448.88;;;16.38;100.00
20620;BME280;10469;42.720;23.252;2023-10-13T05:32:17;95450.81;;;15.84;100.00
20620;BME280;10469;42.720;23.252;2023-10-13T05:35:02;95453.41;;;17.02;100.00
20620;BME280;10469;42.720;23.252;2023-10-13T05:37:46;95459.22;;;18.55;100.00
20620;BME280;10469;42.720;23.252;2023-10-13T05:40:30;95441.25;;;17.83;100.00
20620;BME280;10469;42.720;23.252;2023-10-13T05:43:14;95443.47;;;18.77;100.00
20620;BME280;10469;42.720;23.252;2023-10-13T05:46:03;95459.97;;;17.16;100.00
20620;BME280;10469;42.720;23.252;2023-10-13T05:48:48;95450.88;;;19.52;100.00
20620;BME280;10469;42.720;23.252;2023-10-13T05:51:26;95456.69;;;21.93;90.55
20620;BME280;10469;42.720;23.252;2023-10-13T05:54:10;95469.44;;;16.71;100.00
20620;BME280;10469;42.720;23.252;2023-10-13T05:56:43;95471.16;;;16.18;100.00
20620;BME280;10469;42.720;23.252;2023-10-13T05:59:29;95462.19;;;18.13;100.00
20620;BME280;10469;42.720;23.252;2023-10-13T06:02:17;95446.31;;;17.53;100.00
20620;BME280;10469;42.720;23.252;2023-10-13T06:05:05;95486.44;;;18.70;100.00
20620;BME280;10469;42.720;23.252;2023-10-13T06:07:50;95469.50;;;19.89;98.94
20620;BME280;10469;42.720;23.252;2023-10-13T06:10:36;95460.31;;;18.28;100.00
20620;BME280;10469;42.720;23.252;2023-10-13T06:13:20;95466.03;;;18.37;100.00
20620;BME280;10469;42.720;23.252;2023-10-13T06:16:14;95457.84;;;19.03;100.00
20620;BME280;10469;42.720;23.252;2023-10-13T06:19:00;95474.19;;;18.88;100.00
20620;BME280;10469;42.720;23.252;2023-10-13T06:21:44;95461.88;;;19.21;99.68
20620;BME280;10469;42.720;23.252;2023-10-13T06:24:30;95467.09;;;18.92;100.00
20620;BME280;10469;42.720;23.252;2023-10-13T06:27:17;95468.75;;;18.58;100.00
20620;BME280;10469;42.720;23.252;2023-10-13T06:30:02;95468.94;;;19.12;99.81
20620;BME280;10469;42.720;23.252;2023-10-13T06:32:30;95467.16;;;20.17;94.30
20620;BME280;10469;42.720;23.252;2023-10-13T06:34:58;95478.22;;;19.91;95.32
20620;BME280;10469;42.720;23.252;2023-10-13T06:37:24;95487.19;;;19.07;97.97
20620;BME280;10469;42.720;23.252;2023-10-13T06:40:02;95476.56;;;19.15;99.06
20620;BME280;10469;42.720;23.252;2023-10-13T06:42:32;95483.56;;;20.51;93.64
20620;BME280;10469;42.720;23.252;2023-10-13T06:45:08;95502.34;;;20.03;95.10
20620;BME280;10469;42.720;23.252;2023-10-13T06:47:37;95475.56;;;20.25;92.35
20620;BME280;10469;42.720;23.252;2023-10-13T06:50:09;95478.84;;;20.22;94.97
20620;BME280;10469;42.720;23.252;2023-10-13T06:52:43;95497.56;;;20.73;91.84
20620;BME280;10469;42.720;23.252;2023-10-13T06:55:10;95455.94;;;20.63;90.68
20620;BME280;10469;42.720;23.252;2023-10-13T06:57:44;95472.41;;;20.03;94.81
20620;BME280;10469;42.720;23.252;2023-10-13T07:00:12;95456.50;;;22.79;81.34
20620;BME280;10469;42.720;23.252;2023-10-13T07:03:09;95461.88;;;26.05;67.95
20620;BME280;10469;42.720;23.252;2023-10-13T07:05:44;95460.47;;;23.47;71.54
20620;BME280;10469;42.720;23.252;2023-10-13T07:08:15;95461.00;;;21.57;81.08
20620;BME280;10469;42.720;23.252;2023-10-13T07:10:52;95462.84;;;22.74;79.62
20620;BME280;10469;42.720;23.252;2023-10-13T07:13:28;95471.44;;;21.49;80.76
20620;BME280;10469;42.720;23.252;2023-10-13T07:15:55;95481.31;;;21.69;84.14
20620;BME280;10469;42.720;23.252;2023-10-13T07:18:31;95473.50;;;20.80;86.86
20620;BME280;10469;42.720;23.252;2023-10-13T07:21:03;95480.63;;;19.93;92.72
20620;BME280;10469;42.720;23.252;2023-10-13T07:23:38;95479.22;;;21.85;87.52
20620;BME280;10469;42.720;23.252;2023-10-13T07:26:05;95474.91;;;21.02;85.84
20620;BME280;10469;42.720;23.252;2023-10-13T07:28:35;95460.69;;;22.01;82.69
20620;BME280;10469;42.720;23.252;2023-10-13T07:31:15;95463.03;;;21.89;81.92
20620;BME280;10469;42.720;23.252;2023-10-13T07:33:41;95462.84;;;22.23;81.98
20620;BME280;10469;42.720;23.252;2023-10-13T07:36:09;95456.66;;;21.74;83.68
20620;BME280;10469;42.720;23.252;2023-10-13T07:38:53;95456.75;;;21.88;83.03
20620;BME280;10469;42.720;23.252;2023-10-13T07:41:46;95453.97;;;22.83;79.45
20620;BME280;10469;42.720;23.252;2023-10-13T07:44:17;95461.78;;;23.22;78.73
20620;BME280;10469;42.720;23.252;2023-10-13T07:46:45;95436.41;;;23.99;73.90
20620;BME280;10469;42.720;23.252;2023-10-13T07:49:14;95455.00;;;23.33;76.06
20620;BME280;10469;42.720;23.252;2023-10-13T07:51:40;95457.81;;;22.49;80.14
20620;BME280;10469;42.720;23.252;2023-10-13T07:54:16;95454.19;;;22.86;78.16
20620;BME280;10469;42.720;23.252;2023-10-13T07:56:50;95459.13;;;23.03;77.84
20620;BME280;10469;42.720;23.252;2023-10-13T07:59:16;95449.31;;;23.16;75.70
20620;BME280;10469;42.720;23.252;2023-10-13T08:01:42;95446.25;;;23.03;78.78
20620;BME280;10469;42.720;23.252;2023-10-13T08:04:11;95442.00;;;22.78;78.80
20620;BME280;10469;42.720;23.252;2023-10-13T08:06:48;95436.59;;;22.92;79.12
20620;BME280;10469;42.720;23.252;2023-10-13T08:09:14;95425.06;;;24.95;70.91
20620;BME280;10469;42.720;23.252;2023-10-13T08:12:06;95451.97;;;24.40;70.23
20620;BME280;10469;42.720;23.252;2023-10-13T08:14:36;95448.63;;;23.65;74.40
20620;BME280;10469;42.720;23.252;2023-10-13T08:17:05;95442.13;;;23.89;71.99
20620;BME280;10469;42.720;23.252;2023-10-13T08:19:38;95444.91;;;24.11;70.78
20620;BME280;10469;42.720;23.252;2023-10-13T08:22:13;95461.16;;;22.78;76.86
20620;BME280;10469;42.720;23.252;2023-10-13T08:24:47;95434.47;;;22.89;77.45
20620;BME280;10469;42.720;23.252;2023-10-13T08:27:14;95470.75;;;22.43;77.74
20620;BME280;10469;42.720;23.252;2023-10-13T08:29:47;95445.44;;;22.38;80.93
20620;BME280;10469;42.720;23.252;2023-10-13T08:32:23;95445.06;;;24.28;73.64
20620;BME280;10469;42.720;23.252;2023-10-13T08:34:56;95440.31;;;23.70;73.91
20620;BME280;10469;42.720;23.252;2023-10-13T08:37:31;95432.09;;;23.01;77.88
20620;BME280;10469;42.720;23.252;2023-10-13T08:40:15;95447.47;;;23.11;76.57
20620;BME280;10469;42.720;23.252;2023-10-13T08:42:44;95431.16;;;23.89;74.13
20620;BME280;10469;42.720;23.252;2023-10-13T08:45:13;95449.38;;;22.97;76.32
20620;BME280;10469;42.720;23.252;2023-10-13T08:47:51;95436.69;;;24.11;72.77
20620;BME280;10469;42.720;23.252;2023-10-13T08:53:26;95441.19;;;22.78;76.72
20620;BME280;10469;42.720;23.252;2023-10-13T08:56:03;95444.97;;;23.84;76.18
20620;BME280;10469;42.720;23.252;2023-10-13T08:58:33;95422.34;;;25.26;69.37
20620;BME280;10469;42.720;23.252;2023-10-13T09:04:06;95431.53;;;26.54;64.83
20620;BME280;10469;42.720;23.252;2023-10-13T09:07:18;95418.56;;;26.54;64.33
20620;BME280;10469;42.720;23.252;2023-10-13T09:09:51;95428.88;;;26.92;62.08
20620;BME280;10469;42.720;23.252;2023-10-13T09:12:28;95419.31;;;26.89;63.29
20620;BME280;10469;42.720;23.252;2023-10-13T09:14:58;95414.13;;;27.52;60.19
20620;BME280;10469;42.720;23.252;2023-10-13T09:17:29;95420.81;;;26.87;57.31
20620;BME280;10469;42.720;23.252;2023-10-13T09:20:05;95409.03;;;26.69;60.05
20620;BME280;10469;42.720;23.252;2023-10-13T09:22:50;95396.19;;;29.13;54.37
20620;BME280;10469;42.720;23.252;2023-10-13T09:25:38;95410.03;;;29.38;53.63
20620;BME280;10469;42.720;23.252;2023-10-13T09:28:14;95403.22;;;29.23;51.63
20620;BME280;10469;42.720;23.252;2023-10-13T09:30:50;95368.81;;;28.42;52.08
20620;BME280;10469;42.720;23.252;2023-10-13T09:33:36;95402.28;;;27.90;53.84
20620;BME280;10469;42.720;23.252;2023-10-13T09:36:03;95403.81;;;28.50;52.75
20620;BME280;10469;42.720;23.252;2023-10-13T09:38:36;95396.59;;;28.37;52.45
20620;BME280;10469;42.720;23.252;2023-10-13T09:41:06;95392.81;;;27.32;55.00
20620;BME280;10469;42.720;23.252;2023-10-13T09:43:45;95391.25;;;26.49;56.85
20620;BME280;10469;42.720;23.252;2023-10-13T09:46:20;95396.03;;;27.72;53.40
20620;BME280;10469;42.720;23.252;2023-10-13T09:48:49;95383.16;;;26.09;56.73
20620;BME280;10469;42.720;23.252;2023-10-13T09:51:30;95392.34;;;25.96;57.90
20620;BME280;10469;42.720;23.252;2023-10-13T09:54:24;95386.72;;;26.44;57.32
20620;BME280;10469;42.720;23.252;2023-10-13T09:57:16;95384.13;;;26.31;56.11
20620;BME280;10469;42.720;23.252;2023-10-13T09:59:52;95338.09;;;26.83;54.27
20620;BME280;10469;42.720;23.252;2023-10-13T10:02:21;95368.94;;;28.79;51.04
20620;BME280;10469;42.720;23.252;2023-10-13T10:04:54;95363.56;;;29.77;48.29
20620;BME280;10469;42.720;23.252;2023-10-13T10:07:28;95364.31;;;28.16;50.43
20620;BME280;10469;42.720;23.252;2023-10-13T10:09:58;95361.63;;;28.95;48.82
20620;BME280;10469;42.720;23.252;2023-10-13T10:13:06;95349.59;;;29.48;47.40
20620;BME280;10469;42.720;23.252;2023-10-13T10:15:35;95348.06;;;31.12;43.07
20620;BME280;10469;42.720;23.252;2023-10-13T10:18:29;95348.59;;;29.41;43.80
20620;BME280;10469;42.720;23.252;2023-10-13T10:21:06;95337.03;;;31.44;41.63
20620;BME280;10469;42.720;23.252;2023-10-13T10:23:58;95344.78;;;31.07;41.37
20620;BME280;10469;42.720;23.252;2023-10-13T10:26:50;95340.00;;;30.76;41.15
20620;BME280;10469;42.720;23.252;2023-10-13T10:29:17;95319.31;;;31.33;40.93
20620;BME280;10469;42.720;23.252;2023-10-13T10:31:42;95337.56;;;31.34;40.23
20620;BME280;10469;42.720;23.252;2023-10-13T10:34:20;95346.03;;;30.37;41.29
20620;BME280;10469;42.720;23.252;2023-10-13T10:36:57;95340.28;;;30.30;40.76
20620;BME280;10469;42.720;23.252;2023-10-13T10:39:36;95335.34;;;29.71;40.66
20620;BME280;10469;42.720;23.252;2023-10-13T10:42:12;95318.81;;;28.43;43.73
20620;BME280;10469;42.720;23.252;2023-10-13T10:44:41;95334.06;;;29.19;42.01
20620;BME280;10469;42.720;23.252;2023-10-13T10:47:14;95324.75;;;29.12;39.71
20620;BME280;10469;42.720;23.252;2023-10-13T10:50:02;95328.56;;;29.56;38.62
20620;BME280;10469;42.720;23.252;2023-10-13T10:52:48;95301.53;;;30.02;39.95
20620;BME280;10469;42.720;23.252;2023-10-13T10:55:19;95316.22;;;29.41;40.40
20620;BME280;10469;42.720;23.252;2023-10-13T10:57:46;95323.25;;;29.39;40.24
20620;BME280;10469;42.720;23.252;2023-10-13T11:00:23;95327.38;;;29.69;38.47
20620;BME280;10469;42.720;23.252;2023-10-13T11:02:55;95305.88;;;29.50;38.35
20620;BME280;10469;42.720;23.252;2023-10-13T11:05:22;95316.03;;;29.99;37.74
20620;BME280;10469;42.720;23.252;2023-10-13T11:07:50;95304.38;;;31.37;36.94
20620;BME280;10469;42.720;23.252;2023-10-13T11:10:18;95307.41;;;30.41;37.53
20620;BME280;10469;42.720;23.252;2023-10-13T11:13:00;95307.97;;;31.06;37.21
20620;BME280;10469;42.720;23.252;2023-10-13T11:15:42;95302.81;;;30.33;36.86
20620;BME280;10469;42.720;23.252;2023-10-13T11:18:10;95290.38;;;30.55;36.95
20620;BME280;10469;42.720;23.252;2023-10-13T11:20:42;95288.19;;;31.23;35.73
20620;BME280;10469;42.720;23.252;2023-10-13T11:23:14;95292.09;;;31.70;34.92
20620;BME280;10469;42.720;23.252;2023-10-13T11:25:41;95296.19;;;32.50;34.26
20620;BME280;10469;42.720;23.252;2023-10-13T11:30:44;95285.00;;;33.88;31.91
20620;BME280;10469;42.720;23.252;2023-10-13T11:33:17;95286.75;;;30.10;35.80
20620;BME280;10469;42.720;23.252;2023-10-13T11:35:44;95283.66;;;29.22;37.34
20620;BME280;10469;42.720;23.252;2023-10-13T11:40:56;95284.13;;;30.58;37.02
20620;BME280;10469;42.720;23.252;2023-10-13T11:43:38;95276.78;;;30.49;35.55
20620;BME280;10469;42.720;23.252;2023-10-13T11:46:13;95269.38;;;31.13;35.02
20620;BME280;10469;42.720;23.252;2023-10-13T11:48:41;95268.44;;;30.62;35.93
20620;BME280;10469;42.720;23.252;2023-10-13T11:51:12;95252.59;;;28.10;39.13
20620;BME280;10469;42.720;23.252;2023-10-13T11:53:49;95265.75;;;28.25;39.34
20620;BME280;10469;42.720;23.252;2023-10-13T11:56:19;95259.63;;;31.04;36.98
20620;BME280;10469;42.720;23.252;2023-10-13T11:58:48;95264.00;;;29.12;38.12
20620;BME280;10469;42.720;23.252;2023-10-13T12:01:14;95259.00;;;29.66;37.91
20620;BME280;10469;42.720;23.252;2023-10-13T12:03:40;95260.88;;;29.62;37.58
20620;BME280;10469;42.720;23.252;2023-10-13T12:06:25;95246.69;;;31.59;35.49
20620;BME280;10469;42.720;23.252;2023-10-13T12:09:07;95253.50;;;29.30;37.80
20620;BME280;10469;42.720;23.252;2023-10-13T12:11:45;95243.63;;;30.81;36.06
20620;BME280;10469;42.720;23.252;2023-10-13T12:14:12;95256.28;;;29.17;38.75
20620;BME280;10469;42.720;23.252;2023-10-13T12:16:58;95244.06;;;29.18;39.13
20620;BME280;10469;42.720;23.252;2023-10-13T12:19:30;95244.78;;;29.03;39.05
20620;BME280;10469;42.720;23.252;2023-10-13T12:21:57;95237.94;;;28.64;39.38
20620;BME280;10469;42.720;23.252;2023-10-13T12:24:28;95204.94;;;28.92;38.16
20620;BME280;10469;42.720;23.252;2023-10-13T12:27:00;95245.41;;;28.51;39.00
20620;BME280;10469;42.720;23.252;2023-10-13T12:29:26;95240.94;;;29.44;38.02
20620;BME280;10469;42.720;23.252;2023-10-13T12:32:00;95237.72;;;29.67;37.45
20620;BME280;10469;42.720;23.252;2023-10-13T12:34:35;95231.41;;;29.82;37.29
20620;BME280;10469;42.720;23.252;2023-10-13T12:37:20;95222.13;;;29.74;37.09
20620;BME280;10469;42.720;23.252;2023-10-13T12:40:04;95226.28;;;29.68;36.70
20620;BME280;10469;42.720;23.252;2023-10-13T12:42:49;95230.63;;;29.29;36.86
20620;BME280;10469;42.720;23.252;2023-10-13T12:45:32;95227.91;;;28.47;38.11
20620;BME280;10469;42.720;23.252;2023-10-13T12:48:17;95219.66;;;27.09;40.79
20620;BME280;10469;42.720;23.252;2023-10-13T12:51:01;95229.25;;;27.03;40.86
20620;BME280;10469;42.720;23.252;2023-10-13T12:53:48;95220.72;;;27.25;40.51
20620;BME280;10469;42.720;23.252;2023-10-13T12:56:15;95233.13;;;27.32;41.25
20620;BME280;10469;42.720;23.252;2023-10-13T12:58:44;95214.06;;;27.68;40.26
20620;BME280;10469;42.720;23.252;2023-10-13T13:01:20;95223.19;;;26.80;41.24
20620;BME280;10469;42.720;23.252;2023-10-13T13:03:50;95208.63;;;26.33;41.46
20620;BME280;10469;42.720;23.252;2023-10-13T13:06:20;95225.41;;;26.57;41.78
20620;BME280;10469;42.720;23.252;2023-10-13T13:08:54;95224.19;;;26.75;41.71
20620;BME280;10469;42.720;23.252;2023-10-13T13:11:20;95209.72;;;26.58;41.94
20620;BME280;10469;42.720;23.252;2023-10-13T13:13:47;95208.06;;;26.65;41.69
20620;BME280;10469;42.720;23.252;2023-10-13T13:16:17;95212.50;;;26.49;42.55
20620;BME280;10469;42.720;23.252;2023-10-13T13:18:44;95202.22;;;26.11;42.05
20620;BME280;10469;42.720;23.252;2023-10-13T13:21:10;95217.72;;;26.24;42.68
20620;BME280;10469;42.720;23.252;2023-10-13T13:23:47;95224.44;;;26.53;42.80
20620;BME280;10469;42.720;23.252;2023-10-13T13:26:12;95218.16;;;26.52;42.57
20620;BME280;10469;42.720;23.252;2023-10-13T13:28:48;95216.59;;;26.72;42.46
20620;BME280;10469;42.720;23.252;2023-10-13T13:31:20;95212.78;;;26.00;43.75
20620;BME280;10469;42.720;23.252;2023-10-13T13:33:52;95216.31;;;26.01;43.46
20620;BME280;10469;42.720;23.252;2023-10-13T13:36:18;95210.97;;;26.13;43.50
20620;BME280;10469;42.720;23.252;2023-10-13T13:38:45;95216.69;;;26.38;42.66
20620;BME280;10469;42.720;23.252;2023-10-13T13:41:16;95215.75;;;26.34;43.21
20620;BME280;10469;42.720;23.252;2023-10-13T13:43:51;95213.34;;;26.23;42.89
20620;BME280;10469;42.720;23.252;2023-10-13T13:46:26;95202.50;;;26.36;42.33
20620;BME280;10469;42.720;23.252;2023-10-13T13:49:06;95210.06;;;26.56;42.75
20620;BME280;10469;42.720;23.252;2023-10-13T13:51:33;95219.59;;;26.41;42.57
20620;BME280;10469;42.720;23.252;2023-10-13T13:54:03;95220.75;;;26.40;43.03